sensor_id;sensor_type;location;lat;lon;timestamp;pressure;altitude;pressure_sealevel;temperature;humidity
27032;BME280;14580;52.918;9.214;2024-01-07T00:01:39;101722.13;;;0.72;100.00
27032;BME280;14580;52.918;9.214;2024-01-07T00:04:05;101718.66;;;0.79;100.00
27032;BME280;14580;52.918;9.214;2024-01-07T00:06:30;101733.09;;;0.77;100.00
27032;BME280;14580;52.918;9.214;2024-01-07T00:08:57;101729.66;;;0.79;100.00
27032;BME280;14580;52.918;9.214;2024-01-07T00:11:23;101736.47;;;0.77;100.00
27032;BME280;14580;52.918;9.214;2024-01-07T00:13:50;101734.81;;;0.73;100.00
27032;BME280;14580;52.918;9.214;2024-01-07T00:16:15;101729.69;;;0.78;100.00
27032;BME280;14580;52.918;9.214;2024-01-07T00:18:41;101734.06;;;0.63;100.00
27032;BME280;14580;52.918;9.214;2024-01-07T00:21:08;101734.19;;;0.54;100.00
27032;BME280;14580;52.918;9.214;2024-01-07T00:23:34;101746.00;;;0.58;100.00
27032;BME280;14580;52.918;9.214;2024-01-07T00:26:00;101750.13;;;0.69;100.00
27032;BME280;14580;52.918;9.214;2024-01-07T00:28:25;101750.94;;;0.71;100.00
27032;BME280;14580;52.918;9.214;2024-01-07T00:30:51;101756.22;;;0.49;100.00
27032;BME280;14580;52.918;9.214;2024-01-07T00:33:17;101761.19;;;0.60;100.00
27032;BME280;14580;52.918;9.214;2024-01-07T00:35:43;101760.41;;;0.56;100.00
27032;BME280;14580;52.918;9.214;2024-01-07T00:38:08;101766.34;;;0.55;100.00
27032;BME280;14580;52.918;9.214;2024-01-07T00:40:34;101774.06;;;0.46;100.00
27032;BME280;14580;52.918;9.214;2024-01-07T00:43:00;101773.16;;;0.50;100.00
27032;BME280;14580;52.918;9.214;2024-01-07T00:45:25;101772.41;;;0.41;100.00
27032;BME280;14580;52.918;9.214;2024-01-07T00:47:51;101761.44;;;0.37;100.00
27032;BME280;14580;52.918;9.214;2024-01-07T00:50:20;101777.47;;;0.44;100.00
27032;BME280;14580;52.918;9.214;2024-01-07T00:52:46;101780.84;;;0.44;100.00
27032;BME280;14580;52.918;9.214;2024-01-07T00:55:13;101784.19;;;0.48;100.00
27032;BME280;14580;52.918;9.214;2024-01-07T00:57:38;101786.72;;;0.51;100.00
27032;BME280;14580;52.918;9.214;2024-01-07T01:00:06;101796.00;;;0.52;100.00
27032;BME280;14580;52.918;9.214;2024-01-07T01:02:32;101795.22;;;0.45;100.00
27032;BME280;14580;52.918;9.214;2024-01-07T01:04:58;101792.75;;;0.39;100.00
27032;BME280;14580;52.918;9.214;2024-01-07T01:07:24;101800.41;;;0.36;100.00
27032;BME280;14580;52.918;9.214;2024-01-07T01:09:49;101803.69;;;0.44;100.00
27032;BME280;14580;52.918;9.214;2024-01-07T01:12:15;101802.00;;;0.46;100.00
27032;BME280;14580;52.918;9.214;2024-01-07T01:14:41;101813.84;;;0.44;100.00
27032;BME280;14580;52.918;9.214;2024-01-07T01:17:07;101817.28;;;0.43;100.00
27032;BME280;14580;52.918;9.214;2024-01-07T01:19:33;101819.94;;;0.28;100.00
27032;BME280;14580;52.918;9.214;2024-01-07T01:21:59;101819.06;;;0.32;100.00
27032;BME280;14580;52.918;9.214;2024-01-07T01:24:25;101823.34;;;0.26;100.00
27032;BME280;14580;52.918;9.214;2024-01-07T01:26:50;101823.25;;;0.35;100.00
27032;BME280;14580;52.918;9.214;2024-01-07T01:29:16;101827.63;;;0.19;100.00
27032;BME280;14580;52.918;9.214;2024-01-07T01:31:42;101833.50;;;0.26;100.00
27032;BME280;14580;52.918;9.214;2024-01-07T01:34:08;101836.00;;;0.30;100.00
27032;BME280;14580;52.918;9.214;2024-01-07T01:36:34;101846.13;;;0.36;100.00
27032;BME280;14580;52.918;9.214;2024-01-07T01:39:00;101837.63;;;0.40;100.00
27032;BME280;14580;52.918;9.214;2024-01-07T01:41:26;101844.41;;;0.38;100.00
27032;BME280;14580;52.918;9.214;2024-01-07T01:43:57;101841.03;;;0.36;100.00
27032;BME280;14580;52.918;9.214;2024-01-07T01:46:24;101843.59;;;0.36;100.00
27032;BME280;14580;52.918;9.214;2024-01-07T01:48:50;101848.59;;;0.44;100.00
27032;BME280;14580;52.918;9.214;2024-01-07T01:51:16;101864.72;;;0.41;100.00
27032;BME280;14580;52.918;9.214;2024-01-07T01:53:42;101866.50;;;0.24;100.00
27032;BME280;14580;52.918;9.214;2024-01-07T01:56:08;101861.44;;;0.21;100.00
27032;BME280;14580;52.918;9.214;2024-01-07T01:58:34;101871.59;;;0.21;100.00
27032;BME280;14580;52.918;9.214;2024-01-07T02:00:59;101866.50;;;0.27;100.00
27032;BME280;14580;52.918;9.214;2024-01-07T02:03:26;101868.09;;;0.37;100.00
27032;BME280;14580;52.918;9.214;2024-01-07T02:05:52;101871.66;;;0.15;100.00
27032;BME280;14580;52.918;9.214;2024-01-07T02:08:21;101880.13;;;0.11;100.00
27032;BME280;14580;52.918;9.214;2024-01-07T02:10:48;101876.66;;;0.27;100.00
27032;BME280;14580;52.918;9.214;2024-01-07T02:13:14;101879.28;;;0.14;100.00
27032;BME280;14580;52.918;9.214;2024-01-07T02:15:39;101881.88;;;0.08;100.00
27032;BME280;14580;52.918;9.214;2024-01-07T02:18:05;101886.06;;;0.15;100.00
27032;BME280;14580;52.918;9.214;2024-01-07T02:20:31;101896.19;;;0.13;100.00
27032;BME280;14580;52.918;9.214;2024-01-07T02:22:57;101885.22;;;0.08;100.00
27032;BME280;14580;52.918;9.214;2024-01-07T02:25:25;101895.47;;;-0.04;100.00
27032;BME280;14580;52.918;9.214;2024-01-07T02:27:51;101897.19;;;-0.09;100.00
27032;BME280;14580;52.918;9.214;2024-01-07T02:30:17;101901.44;;;-0.08;100.00
27032;BME280;14580;52.918;9.214;2024-01-07T02:32:43;101904.81;;;-0.09;100.00
27032;BME280;14580;52.918;9.214;2024-01-07T02:35:09;101899.69;;;-0.02;100.00
27032;BME280;14580;52.918;9.214;2024-01-07T02:37:35;101903.06;;;-0.04;100.00
27032;BME280;14580;52.918;9.214;2024-01-07T02:40:00;101914.06;;;0.01;100.00
27032;BME280;14580;52.918;9.214;2024-01-07T02:42:26;101910.63;;;0.08;100.00
27032;BME280;14580;52.918;9.214;2024-01-07T02:44:52;101914.88;;;0.08;100.00
27032;BME280;14580;52.918;9.214;2024-01-07T02:47:18;101921.56;;;0.21;100.00
27032;BME280;14580;52.918;9.214;2024-01-07T02:49:43;101917.34;;;0.18;100.00
27032;BME280;14580;52.918;9.214;2024-01-07T02:52:09;101916.47;;;0.22;100.00
27032;BME280;14580;52.918;9.214;2024-01-07T02:54:35;101923.19;;;0.31;100.00
27032;BME280;14580;52.918;9.214;2024-01-07T02:57:01;101916.44;;;0.27;100.00
27032;BME280;14580;52.918;9.214;2024-01-07T02:59:27;101923.25;;;0.22;100.00
27032;BME280;14580;52.918;9.214;2024-01-07T03:01:53;101925.78;;;0.23;100.00
27032;BME280;14580;52.918;9.214;2024-01-07T03:04:18;101924.97;;;0.17;100.00
27032;BME280;14580;52.918;9.214;2024-01-07T03:06:44;101934.25;;;0.19;100.00
27032;BME280;14580;52.918;9.214;2024-01-07T03:09:10;101934.25;;;0.19;100.00
27032;BME280;14580;52.918;9.214;2024-01-07T03:11:40;101937.63;;;0.23;100.00
27032;BME280;14580;52.918;9.214;2024-01-07T03:14:10;101940.13;;;0.29;100.00
27032;BME280;14580;52.918;9.214;2024-01-07T03:16:36;101940.19;;;0.17;100.00
27032;BME280;14580;52.918;9.214;2024-01-07T03:19:02;101945.25;;;0.20;100.00
27032;BME280;14580;52.918;9.214;2024-01-07T03:21:28;101944.41;;;0.19;100.00
27032;BME280;14580;52.918;9.214;2024-01-07T03:23:55;101946.94;;;0.22;100.00
27032;BME280;14580;52.918;9.214;2024-01-07T03:26:21;101941.91;;;0.15;100.00
27032;BME280;14580;52.918;9.214;2024-01-07T03:28:53;101954.59;;;0.16;100.00
27032;BME280;14580;52.918;9.214;2024-01-07T03:31:19;101955.44;;;0.15;99.84
27032;BME280;14580;52.918;9.214;2024-01-07T03:33:45;101960.53;;;0.15;99.63
27032;BME280;14580;52.918;9.214;2024-01-07T03:36:12;101963.88;;;0.23;99.08
27032;BME280;14580;52.918;9.214;2024-01-07T03:38:41;101958.78;;;0.22;99.05
27032;BME280;14580;52.918;9.214;2024-01-07T03:41:07;101959.66;;;0.19;98.73
27032;BME280;14580;52.918;9.214;2024-01-07T03:43:36;101968.94;;;0.22;98.46
27032;BME280;14580;52.918;9.214;2024-01-07T03:46:02;101967.28;;;0.15;98.29
27032;BME280;14580;52.918;9.214;2024-01-07T03:48:28;101974.03;;;0.20;97.63
27032;BME280;14580;52.918;9.214;2024-01-07T03:50:53;101967.22;;;0.27;97.56
27032;BME280;14580;52.918;9.214;2024-01-07T03:53:19;101976.50;;;0.29;97.86
27032;BME280;14580;52.918;9.214;2024-01-07T03:55:47;101978.25;;;0.21;97.60
27032;BME280;14580;52.918;9.214;2024-01-07T03:58:13;101978.22;;;0.27;97.72
27032;BME280;14580;52.918;9.214;2024-01-07T04:00:54;101985.88;;;0.23;96.72
27032;BME280;14580;52.918;9.214;2024-01-07T04:03:26;101988.47;;;0.09;96.71
27032;BME280;14580;52.918;9.214;2024-01-07T04:05:52;101986.81;;;0.05;96.71
27032;BME280;14580;52.918;9.214;2024-01-07T04:08:18;101990.19;;;0.04;95.85
27032;BME280;14580;52.918;9.214;2024-01-07T04:10:44;101995.22;;;0.16;96.54
27032;BME280;14580;52.918;9.214;2024-01-07T04:13:10;102008.78;;;0.09;96.22
27032;BME280;14580;52.918;9.214;2024-01-07T04:15:35;102001.97;;;0.20;96.16
27032;BME280;14580;52.918;9.214;2024-01-07T04:18:52;102009.59;;;0.16;96.12
27032;BME280;14580;52.918;9.214;2024-01-07T04:28:41;102022.34;;;0.05;94.86
27032;BME280;14580;52.918;9.214;2024-01-07T04:38:03;102045.16;;;0.14;94.12
27032;BME280;14580;52.918;9.214;2024-01-07T04:40:29;102037.53;;;0.14;94.10
27032;BME280;14580;52.918;9.214;2024-01-07T04:42:55;102037.53;;;0.14;93.50
27032;BME280;14580;52.918;9.214;2024-01-07T04:45:20;102042.63;;;0.14;93.47
27032;BME280;14580;52.918;9.214;2024-01-07T04:47:46;102044.38;;;0.00;93.59
27032;BME280;14580;52.918;9.214;2024-01-07T04:50:12;102044.38;;;-0.06;92.91
27032;BME280;14580;52.918;9.214;2024-01-07T04:52:40;102054.53;;;-0.06;92.40
27032;BME280;14580;52.918;9.214;2024-01-07T04:55:06;102046.94;;;-0.20;92.72
27032;BME280;14580;52.918;9.214;2024-01-07T04:57:32;102050.34;;;-0.25;92.61
27032;BME280;14580;52.918;9.214;2024-01-07T04:59:58;102056.28;;;-0.29;92.33
27032;BME280;14580;52.918;9.214;2024-01-07T05:02:24;102051.19;;;-0.20;92.28
27032;BME280;14580;52.918;9.214;2024-01-07T05:04:50;102056.25;;;-0.23;92.40
27032;BME280;14580;52.918;9.214;2024-01-07T05:07:16;102068.97;;;-0.28;92.36
27032;BME280;14580;52.918;9.214;2024-01-07T05:09:45;102081.63;;;-0.23;92.66
27032;BME280;14580;52.918;9.214;2024-01-07T05:12:11;102076.56;;;-0.38;92.31
27032;BME280;14580;52.918;9.214;2024-01-07T05:14:40;102079.94;;;-0.33;92.52
27032;BME280;14580;52.918;9.214;2024-01-07T05:17:06;102091.81;;;-0.35;92.67
27032;BME280;14580;52.918;9.214;2024-01-07T05:19:32;102098.53;;;-0.21;93.70
27032;BME280;14580;52.918;9.214;2024-01-07T05:21:59;102100.25;;;-0.24;92.72
27032;BME280;14580;52.918;9.214;2024-01-07T05:24:24;102098.56;;;-0.19;92.80
27032;BME280;14580;52.918;9.214;2024-01-07T05:26:51;102108.72;;;-0.19;92.89
27032;BME280;14580;52.918;9.214;2024-01-07T05:29:16;102110.41;;;-0.24;92.65
27032;BME280;14580;52.918;9.214;2024-01-07T05:31:42;102115.47;;;-0.17;92.29
27032;BME280;14580;52.918;9.214;2024-01-07T05:34:08;102113.75;;;-0.09;92.25
27032;BME280;14580;52.918;9.214;2024-01-07T05:36:34;102118.84;;;-0.13;92.63
27032;BME280;14580;52.918;9.214;2024-01-07T05:39:00;102127.34;;;-0.26;91.94
27032;BME280;14580;52.918;9.214;2024-01-07T05:41:26;102130.72;;;-0.57;91.69
27032;BME280;14580;52.918;9.214;2024-01-07T05:43:52;102127.31;;;-0.53;91.91
27032;BME280;14580;52.918;9.214;2024-01-07T05:46:18;102134.06;;;-0.65;91.82
27032;BME280;14580;52.918;9.214;2024-01-07T05:48:46;102130.69;;;-0.64;91.85
27032;BME280;14580;52.918;9.214;2024-01-07T05:51:13;102150.13;;;-0.64;91.80
27032;BME280;14580;52.918;9.214;2024-01-07T05:53:41;102150.13;;;-0.67;91.84
27032;BME280;14580;52.918;9.214;2024-01-07T05:56:07;102154.34;;;-0.65;91.97
27032;BME280;14580;52.918;9.214;2024-01-07T05:58:36;102156.91;;;-0.65;91.92
27032;BME280;14580;52.918;9.214;2024-01-07T06:01:02;102166.22;;;-0.51;91.73
27032;BME280;14580;52.918;9.214;2024-01-07T06:03:30;102164.53;;;-0.48;91.93
27032;BME280;14580;52.918;9.214;2024-01-07T06:05:57;102162.84;;;-0.47;91.82
27032;BME280;14580;52.918;9.214;2024-01-07T06:08:27;102164.53;;;-0.52;91.79
27032;BME280;14580;52.918;9.214;2024-01-07T06:10:52;102169.59;;;-0.52;91.93
27032;BME280;14580;52.918;9.214;2024-01-07T06:13:18;102166.19;;;-0.54;91.98
27032;BME280;14580;52.918;9.214;2024-01-07T06:15:44;102169.59;;;-0.52;92.01
27032;BME280;14580;52.918;9.214;2024-01-07T06:18:10;102169.63;;;-0.49;92.00
27032;BME280;14580;52.918;9.214;2024-01-07T06:20:36;102179.75;;;-0.49;91.79
27032;BME280;14580;52.918;9.214;2024-01-07T06:23:01;102186.50;;;-0.45;92.39
27032;BME280;14580;52.918;9.214;2024-01-07T06:29:40;102183.97;;;-0.42;92.54
27032;BME280;14580;52.918;9.214;2024-01-07T06:43:47;102216.97;;;-0.33;92.43
27032;BME280;14580;52.918;9.214;2024-01-07T06:50:29;102222.88;;;-0.30;92.08
27032;BME280;14580;52.918;9.214;2024-01-07T07:01:48;102232.22;;;-0.17;92.17
27032;BME280;14580;52.918;9.214;2024-01-07T07:04:42;102244.06;;;-0.11;92.42
27032;BME280;14580;52.918;9.214;2024-01-07T07:10:33;102247.44;;;0.00;92.91
27032;BME280;14580;52.918;9.214;2024-01-07T07:12:59;102257.59;;;0.03;92.39
27032;BME280;14580;52.918;9.214;2024-01-07T07:15:25;102254.22;;;0.04;92.62
27032;BME280;14580;52.918;9.214;2024-01-07T07:17:52;102260.13;;;0.02;92.41
27032;BME280;14580;52.918;9.214;2024-01-07T07:20:18;102256.75;;;0.04;92.95
27032;BME280;14580;52.918;9.214;2024-01-07T07:22:43;102256.75;;;0.07;92.47
27032;BME280;14580;52.918;9.214;2024-01-07T07:25:09;102257.59;;;0.06;93.07
27032;BME280;14580;52.918;9.214;2024-01-07T07:27:35;102271.97;;;0.19;92.91
27032;BME280;14580;52.918;9.214;2024-01-07T07:30:06;102272.84;;;0.15;93.05
27032;BME280;14580;52.918;9.214;2024-01-07T07:32:32;102281.28;;;0.17;93.07
27032;BME280;14580;52.918;9.214;2024-01-07T07:34:58;102286.34;;;0.19;92.91
27032;BME280;14580;52.918;9.214;2024-01-07T07:37:24;102288.91;;;0.22;93.19
27032;BME280;14580;52.918;9.214;2024-01-07T07:39:50;102291.44;;;0.17;93.30
27032;BME280;14580;52.918;9.214;2024-01-07T07:42:16;102297.38;;;0.15;93.06
27032;BME280;14580;52.918;9.214;2024-01-07T07:44:42;102296.53;;;0.20;92.78
27032;BME280;14580;52.918;9.214;2024-01-07T07:47:08;102301.59;;;0.26;93.08
27032;BME280;14580;52.918;9.214;2024-01-07T07:49:37;102306.66;;;0.29;92.86
27032;BME280;14580;52.918;9.214;2024-01-07T07:52:08;102310.91;;;0.32;92.73
27032;BME280;14580;52.918;9.214;2024-01-07T07:54:34;102309.22;;;0.23;93.19
27032;BME280;14580;52.918;9.214;2024-01-07T07:57:02;102315.13;;;0.31;93.08
27032;BME280;14580;52.918;9.214;2024-01-07T07:59:28;102322.75;;;0.34;93.09
27032;BME280;14580;52.918;9.214;2024-01-07T08:01:54;102327.84;;;0.34;92.87
27032;BME280;14580;52.918;9.214;2024-01-07T08:04:20;102318.53;;;0.30;93.22
27032;BME280;14580;52.918;9.214;2024-01-07T08:06:45;102327.84;;;0.37;93.44
27032;BME280;14580;52.918;9.214;2024-01-07T08:09:11;102322.78;;;0.43;93.07
27032;BME280;14580;52.918;9.214;2024-01-07T08:11:37;102326.16;;;0.45;93.32
27032;BME280;14580;52.918;9.214;2024-01-07T08:14:03;102332.91;;;0.45;92.88
27032;BME280;14580;52.918;9.214;2024-01-07T08:16:31;102336.28;;;0.47;93.66
27032;BME280;14580;52.918;9.214;2024-01-07T08:18:57;102343.06;;;0.49;92.85
27032;BME280;14580;52.918;9.214;2024-01-07T08:21:23;102345.59;;;0.49;93.10
27032;BME280;14580;52.918;9.214;2024-01-07T08:23:50;102343.94;;;0.51;93.36
27032;BME280;14580;52.918;9.214;2024-01-07T08:26:19;102343.94;;;0.54;93.62
27032;BME280;14580;52.918;9.214;2024-01-07T08:28:45;102342.22;;;0.50;93.48
27032;BME280;14580;52.918;9.214;2024-01-07T08:31:11;102349.84;;;0.55;93.42
27032;BME280;14580;52.918;9.214;2024-01-07T08:33:40;102358.31;;;0.63;93.50
27032;BME280;14580;52.918;9.214;2024-01-07T08:36:07;102353.22;;;0.66;93.76
27032;BME280;14580;52.918;9.214;2024-01-07T08:38:33;102356.63;;;0.63;93.78
27032;BME280;14580;52.918;9.214;2024-01-07T08:40:58;102363.41;;;0.65;93.40
27032;BME280;14580;52.918;9.214;2024-01-07T08:43:24;102375.28;;;0.67;93.20
27032;BME280;14580;52.918;9.214;2024-01-07T08:45:50;102365.09;;;0.64;93.49
27032;BME280;14580;52.918;9.214;2024-01-07T08:48:16;102371.03;;;0.65;93.27
27032;BME280;14580;52.918;9.214;2024-01-07T08:50:42;102372.72;;;0.75;92.80
27032;BME280;14580;52.918;9.214;2024-01-07T08:53:08;102377.78;;;0.76;93.14
27032;BME280;14580;52.918;9.214;2024-01-07T08:55:34;102378.66;;;0.72;92.87
27032;BME280;14580;52.918;9.214;2024-01-07T08:58:00;102379.50;;;0.70;92.57
27032;BME280;14580;52.918;9.214;2024-01-07T09:00:26;102378.63;;;0.60;92.94
27032;BME280;14580;52.918;9.214;2024-01-07T09:02:55;102384.59;;;0.62;93.12
27032;BME280;14580;52.918;9.214;2024-01-07T09:05:21;102389.66;;;0.76;92.92
27032;BME280;14580;52.918;9.214;2024-01-07T09:07:47;102393.91;;;0.72;92.81
27032;BME280;14580;52.918;9.214;2024-01-07T09:10:12;102401.53;;;0.77;92.89
27032;BME280;14580;52.918;9.214;2024-01-07T09:12:39;102401.53;;;0.65;92.87
27032;BME280;14580;52.918;9.214;2024-01-07T09:15:06;102404.03;;;0.68;93.00
27032;BME280;14580;52.918;9.214;2024-01-07T09:17:36;102405.75;;;0.75;92.88
27032;BME280;14580;52.918;9.214;2024-01-07T09:20:20;102412.53;;;0.62;93.21
27032;BME280;14580;52.918;9.214;2024-01-07T09:23:05;102402.34;;;0.76;93.14
27032;BME280;14580;52.918;9.214;2024-01-07T09:25:58;102410.81;;;0.88;93.15
27032;BME280;14580;52.918;9.214;2024-01-07T09:28:27;102406.59;;;0.95;93.16
27032;BME280;14580;52.918;9.214;2024-01-07T09:30:52;102410.84;;;0.93;93.10
27032;BME280;14580;52.918;9.214;2024-01-07T09:33:18;102418.47;;;0.96;93.05
27032;BME280;14580;52.918;9.214;2024-01-07T09:35:45;102427.78;;;0.85;92.98
27032;BME280;14580;52.918;9.214;2024-01-07T09:38:12;102430.31;;;0.95;93.20
27032;BME280;14580;52.918;9.214;2024-01-07T09:40:38;102426.94;;;0.95;93.02
27032;BME280;14580;52.918;9.214;2024-01-07T09:43:05;102430.34;;;0.88;93.31
27032;BME280;14580;52.918;9.214;2024-01-07T09:45:31;102424.38;;;0.96;93.08
27032;BME280;14580;52.918;9.214;2024-01-07T09:47:58;102429.47;;;1.08;93.42
27032;BME280;14580;52.918;9.214;2024-01-07T09:50:24;102435.41;;;1.03;93.10
27032;BME280;14580;52.918;9.214;2024-01-07T09:52:53;102434.53;;;0.96;93.16
27032;BME280;14580;52.918;9.214;2024-01-07T09:55:29;102425.19;;;1.18;92.94
27032;BME280;14580;52.918;9.214;2024-01-07T09:57:57;102426.88;;;1.25;92.82
27032;BME280;14580;52.918;9.214;2024-01-07T10:00:22;102431.97;;;1.31;92.69
27032;BME280;14580;52.918;9.214;2024-01-07T10:02:50;102442.97;;;1.42;92.47
27032;BME280;14580;52.918;9.214;2024-01-07T10:05:15;102439.53;;;1.46;92.70
27032;BME280;14580;52.918;9.214;2024-01-07T10:07:42;102442.94;;;1.50;92.24
27032;BME280;14580;52.918;9.214;2024-01-07T10:10:15;102439.50;;;1.60;92.06
27032;BME280;14580;52.918;9.214;2024-01-07T10:12:41;102437.81;;;1.59;91.22
27032;BME280;14580;52.918;9.214;2024-01-07T10:15:09;102441.25;;;1.38;91.04
27032;BME280;14580;52.918;9.214;2024-01-07T10:17:34;102437.88;;;1.42;90.55
27032;BME280;14580;52.918;9.214;2024-01-07T10:20:00;102447.19;;;1.49;90.87
27032;BME280;14580;52.918;9.214;2024-01-07T10:22:26;102447.22;;;1.37;90.67
27032;BME280;14580;52.918;9.214;2024-01-07T10:24:52;102450.59;;;1.33;90.69
27032;BME280;14580;52.918;9.214;2024-01-07T10:27:18;102437.91;;;1.27;90.69
27032;BME280;14580;52.918;9.214;2024-01-07T10:29:47;102437.06;;;1.16;90.76
27032;BME280;14580;52.918;9.214;2024-01-07T10:32:17;102436.25;;;1.08;90.72
27032;BME280;14580;52.918;9.214;2024-01-07T10:34:46;102448.09;;;1.15;91.28
27032;BME280;14580;52.918;9.214;2024-01-07T10:37:15;102439.63;;;1.11;91.53
27032;BME280;14580;52.918;9.214;2024-01-07T10:39:41;102451.50;;;1.18;91.75
27032;BME280;14580;52.918;9.214;2024-01-07T10:42:08;102451.44;;;1.24;91.79
27032;BME280;14580;52.918;9.214;2024-01-07T10:44:34;102445.50;;;1.36;92.23
27032;BME280;14580;52.918;9.214;2024-01-07T10:47:06;102442.16;;;1.10;92.50
27032;BME280;14580;52.918;9.214;2024-01-07T10:49:32;102448.91;;;1.24;92.34
27032;BME280;14580;52.918;9.214;2024-01-07T10:52:07;102453.97;;;1.38;92.91
27032;BME280;14580;52.918;9.214;2024-01-07T10:54:35;102450.59;;;1.45;92.67
27032;BME280;14580;52.918;9.214;2024-01-07T10:57:34;102459.06;;;1.47;92.65
27032;BME280;14580;52.918;9.214;2024-01-07T11:00:02;102453.06;;;1.65;92.38
27032;BME280;14580;52.918;9.214;2024-01-07T11:02:48;102454.81;;;1.49;92.40
27032;BME280;14580;52.918;9.214;2024-01-07T11:05:58;102461.53;;;1.70;92.31
27032;BME280;14580;52.918;9.214;2024-01-07T11:08:39;102461.53;;;1.67;92.11
27032;BME280;14580;52.918;9.214;2024-01-07T11:11:15;102457.31;;;1.67;91.74
27032;BME280;14580;52.918;9.214;2024-01-07T11:13:41;102467.44;;;1.82;91.74
27032;BME280;14580;52.918;9.214;2024-01-07T11:16:10;102453.81;;;1.93;91.40
27032;BME280;14580;52.918;9.214;2024-01-07T11:18:54;102464.88;;;1.82;91.29
27032;BME280;14580;52.918;9.214;2024-01-07T11:21:21;102465.69;;;1.91;90.65
27032;BME280;14580;52.918;9.214;2024-01-07T11:23:50;102452.91;;;2.07;90.35
27032;BME280;14580;52.918;9.214;2024-01-07T11:26:17;102464.91;;;1.81;90.41
27032;BME280;14580;52.918;9.214;2024-01-07T11:28:51;102469.13;;;1.83;90.04
27032;BME280;14580;52.918;9.214;2024-01-07T11:31:20;102475.91;;;1.87;90.08
27032;BME280;14580;52.918;9.214;2024-01-07T11:33:48;102463.97;;;1.96;90.05
27032;BME280;14580;52.918;9.214;2024-01-07T11:36:16;102465.75;;;1.81;90.00
27032;BME280;14580;52.918;9.214;2024-01-07T11:38:47;102472.56;;;1.70;89.53
27032;BME280;14580;52.918;9.214;2024-01-07T11:41:15;102470.00;;;1.72;89.44
27032;BME280;14580;52.918;9.214;2024-01-07T11:43:58;102466.63;;;1.67;89.75
27032;BME280;14580;52.918;9.214;2024-01-07T11:46:27;102476.81;;;1.73;90.15
27032;BME280;14580;52.918;9.214;2024-01-07T11:48:59;102475.94;;;1.75;89.83
27032;BME280;14580;52.918;9.214;2024-01-07T11:51:29;102468.28;;;1.86;90.13
27032;BME280;14580;52.918;9.214;2024-01-07T11:54:00;102472.53;;;1.82;89.50
27032;BME280;14580;52.918;9.214;2024-01-07T11:56:27;102453.84;;;1.86;89.86
27032;BME280;14580;52.918;9.214;2024-01-07T11:58:53;102457.16;;;2.01;89.95
27032;BME280;14580;52.918;9.214;2024-01-07T12:01:19;102460.59;;;1.91;89.61
27032;BME280;14580;52.918;9.214;2024-01-07T12:03:46;102458.06;;;1.91;89.12
27032;BME280;14580;52.918;9.214;2024-01-07T12:06:13;102457.94;;;2.10;89.17
27032;BME280;14580;52.918;9.214;2024-01-07T12:08:41;102450.34;;;2.09;89.11
27032;BME280;14580;52.918;9.214;2024-01-07T12:11:08;102458.09;;;1.89;88.89
27032;BME280;14580;52.918;9.214;2024-01-07T12:13:35;102459.81;;;1.78;88.84
27032;BME280;14580;52.918;9.214;2024-01-07T12:16:02;102460.66;;;1.78;88.64
27032;BME280;14580;52.918;9.214;2024-01-07T12:18:29;102453.88;;;1.77;89.42
27032;BME280;14580;52.918;9.214;2024-01-07T12:20:56;102458.13;;;1.72;89.38
27032;BME280;14580;52.918;9.214;2024-01-07T12:23:24;102466.63;;;1.70;89.58
27032;BME280;14580;52.918;9.214;2024-01-07T12:25:51;102464.97;;;1.63;89.59
27032;BME280;14580;52.918;9.214;2024-01-07T12:28:18;102467.47;;;1.70;89.69
27032;BME280;14580;52.918;9.214;2024-01-07T12:30:45;102472.56;;;1.73;89.76
27032;BME280;14580;52.918;9.214;2024-01-07T12:33:11;102469.16;;;1.74;89.83
27032;BME280;14580;52.918;9.214;2024-01-07T12:35:36;102469.13;;;1.80;89.99
27032;BME280;14580;52.918;9.214;2024-01-07T12:38:04;102472.50;;;1.88;89.63
27032;BME280;14580;52.918;9.214;2024-01-07T12:40:30;102474.25;;;1.79;89.31
27032;BME280;14580;52.918;9.214;2024-01-07T12:42:56;102479.38;;;1.65;89.13
27032;BME280;14580;52.918;9.214;2024-01-07T12:45:22;102482.75;;;1.70;89.12
27032;BME280;14580;52.918;9.214;2024-01-07T12:47:48;102483.59;;;1.78;89.13
27032;BME280;14580;52.918;9.214;2024-01-07T12:50:14;102482.72;;;1.79;89.18
27032;BME280;14580;52.918;9.214;2024-01-07T12:52:41;102487.78;;;1.85;89.76
27032;BME280;14580;52.918;9.214;2024-01-07T12:55:07;102486.13;;;1.81;89.07
27032;BME280;14580;52.918;9.214;2024-01-07T12:57:33;102487.78;;;1.92;88.60
27032;BME280;14580;52.918;9.214;2024-01-07T12:59:59;102492.88;;;1.88;89.21
27032;BME280;14580;52.918;9.214;2024-01-07T13:02:26;102495.44;;;1.82;88.89
27032;BME280;14580;52.918;9.214;2024-01-07T13:04:52;102495.44;;;1.79;88.88
27032;BME280;14580;52.918;9.214;2024-01-07T13:07:18;102498.81;;;1.84;89.39
27032;BME280;14580;52.918;9.214;2024-01-07T13:09:43;102490.41;;;1.67;89.28
27032;BME280;14580;52.918;9.214;2024-01-07T13:12:11;102497.16;;;1.71;89.38
27032;BME280;14580;52.918;9.214;2024-01-07T13:14:37;102485.34;;;1.57;89.27
27032;BME280;14580;52.918;9.214;2024-01-07T13:17:02;102495.47;;;1.67;89.27
27032;BME280;14580;52.918;9.214;2024-01-07T13:19:29;102496.25;;;1.87;89.54
27032;BME280;14580;52.918;9.214;2024-01-07T13:21:55;102494.59;;;1.83;89.29
27032;BME280;14580;52.918;9.214;2024-01-07T13:24:24;102498.84;;;1.78;89.11
27032;BME280;14580;52.918;9.214;2024-01-07T13:26:49;102503.97;;;1.62;89.42
27032;BME280;14580;52.918;9.214;2024-01-07T13:29:15;102502.28;;;1.62;89.32
27032;BME280;14580;52.918;9.214;2024-01-07T13:31:41;102494.66;;;1.56;89.32
27032;BME280;14580;52.918;9.214;2024-01-07T13:34:07;102502.31;;;1.55;88.92
27032;BME280;14580;52.918;9.214;2024-01-07T13:36:33;102503.19;;;1.39;89.20
27032;BME280;14580;52.918;9.214;2024-01-07T13:38:59;102499.78;;;1.47;88.81
27032;BME280;14580;52.918;9.214;2024-01-07T13:41:25;102501.50;;;1.39;88.64
27032;BME280;14580;52.918;9.214;2024-01-07T13:43:54;102509.94;;;1.56;88.90